Terminal Aerodrome Forecast
Issued by NWS Shreveport, LA

Home | Current Version | Previous Version | Text Only | Print | Product List | Glossary On
Versions: 1 2 3 4 5 6 7 8 9 10 11 12 13 14 15 16 17 18
000
FTUS44 KSHV 290520
TAFTXK
TAF
KTXK 290520Z 2906/3006 09004KT P6SM BKN250
     FM290800 12006KT P6SM BKN025
     FM291000 12006KT P6SM VCTS OVC025CB
     FM291300 15008KT 4SM -TSRA BR OVC035CB
     FM300200 13008KT 4SM -TSRA BR OVC020CB=

USA.gov is the U.S. government's official web portal to all federal, state and local government web resources and services.